Time;durP1;ratioP1;P1;durP2;ratioP2;P2;SDS_P1;SDS_P2;PMS_P1;PMS_P2;Temp;Humidity;BMP_temperature;BMP_pressure;BME280_temperature;BME280_humidity;BME280_pressure;Samples;Min_cycle;Max_cycle;Signal;HPM_P1;HPM_P2
2023/08/13 00:00:22;;;;;;;10.68;7.15;;;;;;;;;;5135341;27;20055;-61
2023/08/13 00:02:49;;;;;;;9.35;6.70;;;;;;;;;;5136454;27;20058;-61
2023/08/13 00:05:16;;;;;;;10.40;6.90;;;;;;;;;;5135754;27;20043;-60
2023/08/13 00:07:43;;;;;;;14.10;7.63;;;;;;;;;;5135762;27;20051;-61
2023/08/13 00:10:10;;;;;;;10.63;7.53;;;;;;;;;;5135664;27;20128;-61
2023/08/13 00:12:38;;;;;;;10.15;7.70;;;;;;;;;;5135789;27;20415;-61
2023/08/13 00:15:05;;;;;;;24.70;6.30;;;;;;;;;;5135797;27;20047;-61
2023/08/13 00:17:32;;;;;;;6.45;5.20;;;;;;;;;;5135701;27;20054;-61
2023/08/13 00:19:59;;;;;;;11.93;5.60;;;;;;;;;;5135937;27;20058;-61
2023/08/13 00:22:28;;;;;;;7.85;5.53;;;;;;;;;;5135752;27;20051;-60
2023/08/13 00:24:55;;;;;;;7.05;5.50;;;;;;;;;;5135500;27;20054;-61
2023/08/13 00:27:22;;;;;;;9.50;6.28;;;;;;;;;;5135612;27;20051;-60
2023/08/13 00:29:50;;;;;;;9.80;5.55;;;;;;;;;;5135479;27;20074;-60
2023/08/13 00:32:17;;;;;;;9.02;5.93;;;;;;;;;;5135699;27;20047;-60
2023/08/13 00:34:44;;;;;;;8.23;6.07;;;;;;;;;;5135335;27;20047;-61
2023/08/13 00:37:10;;;;;;;9.93;6.63;;;;;;;;;;5134990;27;20055;-61
2023/08/13 00:39:40;;;;;;;12.02;6.55;;;;;;;;;;5135592;27;20047;-61
2023/08/13 00:42:06;;;;;;;10.82;5.93;;;;;;;;;;5135162;27;20050;-60
2023/08/13 00:44:33;;;;;;;8.68;5.57;;;;;;;;;;5135064;27;20047;-61
2023/08/13 00:47:07;;;;;;;6.68;5.00;;;;;;;;;;5135009;27;20059;-60
2023/08/13 00:49:34;;;;;;;8.07;4.93;;;;;;;;;;5134738;27;20055;-61
2023/08/13 00:52:01;;;;;;;11.13;6.15;;;;;;;;;;5134829;27;20062;-61
2023/08/13 00:54:28;;;;;;;9.73;5.00;;;;;;;;;;5135000;27;20073;-60
2023/08/13 00:56:55;;;;;;;10.73;6.35;;;;;;;;;;5134805;27;20403;-61
2023/08/13 00:59:23;;;;;;;10.57;5.93;;;;;;;;;;5134810;27;20051;-61
2023/08/13 01:01:50;;;;;;;11.05;6.15;;;;;;;;;;5135215;27;20400;-61
2023/08/13 01:04:18;;;;;;;9.45;5.30;;;;;;;;;;5135163;27;20051;-60
2023/08/13 01:06:49;;;;;;;8.05;5.28;;;;;;;;;;5134772;27;20058;-60
2023/08/13 01:09:20;;;;;;;8.02;5.28;;;;;;;;;;5135127;27;20054;-60
2023/08/13 01:11:54;;;;;;;8.43;5.75;;;;;;;;;;5134567;27;20046;-60
2023/08/13 01:14:24;;;;;;;11.77;5.30;;;;;;;;;;5134855;27;20059;-60
2023/08/13 01:16:52;;;;;;;7.68;5.10;;;;;;;;;;5134507;27;20058;-61
2023/08/13 01:19:20;;;;;;;10.20;5.20;;;;;;;;;;5134418;27;20054;-61
2023/08/13 01:21:47;;;;;;;11.50;5.35;;;;;;;;;;5134403;27;20055;-61
2023/08/13 01:24:16;;;;;;;7.80;4.60;;;;;;;;;;5134818;27;20050;-60
2023/08/13 01:26:49;;;;;;;10.38;4.53;;;;;;;;;;5134594;27;20054;-61
2023/08/13 01:29:17;;;;;;;11.65;5.60;;;;;;;;;;5134794;27;20062;-61
2023/08/13 01:31:46;;;;;;;8.63;4.95;;;;;;;;;;5134376;27;20055;-61
2023/08/13 01:34:16;;;;;;;9.00;5.20;;;;;;;;;;5134242;27;20420;-61
2023/08/13 01:36:45;;;;;;;7.00;4.70;;;;;;;;;;5134111;27;20050;-60
2023/08/13 01:39:11;;;;;;;10.88;5.20;;;;;;;;;;5134552;27;20054;-61
2023/08/13 01:41:44;;;;;;;8.90;5.20;;;;;;;;;;5134418;27;20062;-61
2023/08/13 01:44:11;;;;;;;7.68;4.63;;;;;;;;;;5134357;27;20054;-61
2023/08/13 01:46:38;;;;;;;9.45;4.72;;;;;;;;;;5133856;27;20407;-61
2023/08/13 01:49:05;;;;;;;7.22;5.57;;;;;;;;;;5133538;27;20051;-61
2023/08/13 01:51:32;;;;;;;11.65;5.07;;;;;;;;;;5134110;27;20050;-61
2023/08/13 01:54:01;;;;;;;8.85;5.35;;;;;;;;;;5134177;27;20051;-61
2023/08/13 01:56:27;;;;;;;9.90;4.93;;;;;;;;;;5134017;27;20051;-60
2023/08/13 01:58:56;;;;;;;10.82;5.43;;;;;;;;;;5133872;27;20074;-61
2023/08/13 02:01:23;;;;;;;10.75;5.82;;;;;;;;;;5133972;27;20059;-61
2023/08/13 02:03:49;;;;;;;8.48;4.47;;;;;;;;;;5134083;27;20349;-61
2023/08/13 02:06:16;;;;;;;6.95;4.78;;;;;;;;;;5133650;27;20050;-61
2023/08/13 02:08:43;;;;;;;7.90;4.65;;;;;;;;;;5118336;27;20051;-60
2023/08/13 02:11:10;;;;;;;8.07;4.60;;;;;;;;;;5112976;28;20062;-61
2023/08/13 02:13:36;;;;;;;6.97;4.50;;;;;;;;;;5112721;28;20488;-60
2023/08/13 02:16:05;;;;;;;8.95;4.43;;;;;;;;;;5113082;28;20052;-61
2023/08/13 02:18:32;;;;;;;5.78;3.95;;;;;;;;;;5113272;28;20512;-61
2023/08/13 02:20:59;;;;;;;8.10;4.80;;;;;;;;;;5113113;28;20052;-62
2023/08/13 02:23:25;;;;;;;7.00;4.97;;;;;;;;;;5112777;28;20051;-61
2023/08/13 02:25:53;;;;;;;8.60;5.20;;;;;;;;;;5112989;28;20385;-61
2023/08/13 02:28:20;;;;;;;8.65;5.20;;;;;;;;;;5113142;28;20058;-60
2023/08/13 02:30:46;;;;;;;7.93;4.95;;;;;;;;;;5112736;28;20058;-61
2023/08/13 02:33:15;;;;;;;6.88;5.22;;;;;;;;;;5112401;28;20411;-61
2023/08/13 02:35:41;;;;;;;8.82;5.00;;;;;;;;;;5113008;28;20047;-61
2023/08/13 02:38:09;;;;;;;7.28;5.50;;;;;;;;;;5128810;27;20055;-61
2023/08/13 02:40:36;;;;;;;9.10;5.32;;;;;;;;;;5133136;27;20605;-61
2023/08/13 02:43:03;;;;;;;8.57;5.68;;;;;;;;;;5133145;27;20066;-61
2023/08/13 02:45:30;;;;;;;10.30;5.30;;;;;;;;;;5132983;27;20051;-60
2023/08/13 02:47:58;;;;;;;8.57;5.47;;;;;;;;;;5133090;28;20051;-61
2023/08/13 02:50:26;;;;;;;9.02;5.55;;;;;;;;;;5133338;28;20058;-61
2023/08/13 02:52:53;;;;;;;7.45;5.15;;;;;;;;;;5133279;28;20055;-60
2023/08/13 02:55:19;;;;;;;6.90;4.97;;;;;;;;;;5133389;28;20051;-61
2023/08/13 02:57:46;;;;;;;8.93;5.47;;;;;;;;;;5133141;28;20421;-61
2023/08/13 03:00:13;;;;;;;7.03;4.82;;;;;;;;;;5133095;28;20055;-60
2023/08/13 03:02:40;;;;;;;9.30;6.05;;;;;;;;;;5133098;28;20047;-61
2023/08/13 03:05:07;;;;;;;9.27;5.65;;;;;;;;;;5132958;28;20058;-61
2023/08/13 03:07:35;;;;;;;9.68;6.57;;;;;;;;;;5132798;28;20502;-61
2023/08/13 03:10:02;;;;;;;8.85;5.20;;;;;;;;;;5133091;28;20484;-61
2023/08/13 03:12:30;;;;;;;11.75;6.28;;;;;;;;;;5132941;28;20047;-61
2023/08/13 03:14:56;;;;;;;11.45;6.32;;;;;;;;;;5133210;28;20086;-61
2023/08/13 03:17:23;;;;;;;7.95;5.10;;;;;;;;;;5132820;28;20047;-61
2023/08/13 03:19:50;;;;;;;12.35;6.32;;;;;;;;;;5132719;28;20056;-61
2023/08/13 03:22:17;;;;;;;12.52;6.75;;;;;;;;;;5132626;28;20055;-60
2023/08/13 03:24:45;;;;;;;9.70;5.57;;;;;;;;;;5132691;28;20047;-61
2023/08/13 03:27:12;;;;;;;8.35;5.20;;;;;;;;;;5132830;28;20074;-61
2023/08/13 03:29:38;;;;;;;9.43;6.20;;;;;;;;;;5132999;28;20051;-61
2023/08/13 03:32:06;;;;;;;11.05;6.40;;;;;;;;;;5132530;28;20492;-61
2023/08/13 03:34:32;;;;;;;7.85;4.95;;;;;;;;;;5133389;27;20062;-61
2023/08/13 03:36:59;;;;;;;11.52;5.47;;;;;;;;;;5136553;27;20048;-60
2023/08/13 03:39:26;;;;;;;8.25;5.20;;;;;;;;;;5136488;27;20058;-61
2023/08/13 03:41:54;;;;;;;9.25;5.18;;;;;;;;;;5136374;27;20055;-60
2023/08/13 03:44:21;;;;;;;7.90;5.13;;;;;;;;;;5136235;27;20503;-60
2023/08/13 03:46:48;;;;;;;9.70;6.25;;;;;;;;;;5136179;27;20051;-61
2023/08/13 03:49:14;;;;;;;9.48;5.60;;;;;;;;;;5136647;27;20055;-60
2023/08/13 03:51:41;;;;;;;8.70;5.80;;;;;;;;;;5136590;27;20055;-61
2023/08/13 03:54:08;;;;;;;16.42;5.43;;;;;;;;;;5136529;27;20050;-61
2023/08/13 03:56:35;;;;;;;10.07;5.55;;;;;;;;;;5136121;27;20050;-61
2023/08/13 03:59:03;;;;;;;9.30;5.80;;;;;;;;;;5136451;27;20051;-61
2023/08/13 04:01:30;;;;;;;10.32;5.68;;;;;;;;;;5136111;27;20051;-60
2023/08/13 04:03:57;;;;;;;10.23;5.95;;;;;;;;;;5136495;27;20055;-61
2023/08/13 04:06:24;;;;;;;7.95;5.28;;;;;;;;;;5135647;27;20057;-60
2023/08/13 04:08:50;;;;;;;11.15;5.63;;;;;;;;;;5136037;27;20058;-60
2023/08/13 04:11:18;;;;;;;7.55;5.05;;;;;;;;;;5136118;27;20058;-61
2023/08/13 04:13:45;;;;;;;10.70;5.28;;;;;;;;;;5118891;27;20055;-61
2023/08/13 04:16:13;;;;;;;14.35;5.97;;;;;;;;;;5135719;27;20066;-61
2023/08/13 04:18:40;;;;;;;9.13;5.82;;;;;;;;;;5136011;27;20047;-60
2023/08/13 04:21:07;;;;;;;9.88;5.65;;;;;;;;;;5135893;27;20068;-60
2023/08/13 04:23:33;;;;;;;13.77;5.80;;;;;;;;;;5135681;27;20058;-61
2023/08/13 04:26:00;;;;;;;8.10;5.30;;;;;;;;;;5135385;27;20066;-61
2023/08/13 04:28:27;;;;;;;10.45;5.65;;;;;;;;;;5135947;27;20051;-61
2023/08/13 04:30:54;;;;;;;8.00;5.00;;;;;;;;;;5135419;27;20055;-60
2023/08/13 04:33:22;;;;;;;9.35;5.78;;;;;;;;;;5135026;27;20411;-61
2023/08/13 04:35:52;;;;;;;12.23;5.43;;;;;;;;;;5135478;27;20051;-61
2023/08/13 04:38:20;;;;;;;7.45;4.57;;;;;;;;;;5135720;27;20051;-60
2023/08/13 04:40:47;;;;;;;9.82;5.45;;;;;;;;;;5135469;27;20431;-61
2023/08/13 04:43:14;;;;;;;6.88;4.63;;;;;;;;;;5135446;27;20054;-61
2023/08/13 04:45:41;;;;;;;11.10;5.80;;;;;;;;;;5134930;27;20047;-61
2023/08/13 04:48:08;;;;;;;12.13;6.35;;;;;;;;;;5135300;27;20392;-61
2023/08/13 04:50:36;;;;;;;7.85;4.43;;;;;;;;;;5134952;27;20051;-60
2023/08/13 04:53:03;;;;;;;10.82;5.13;;;;;;;;;;5135306;27;20047;-61
2023/08/13 04:55:30;;;;;;;9.90;4.93;;;;;;;;;;5135194;27;20062;-60
2023/08/13 04:57:56;;;;;;;11.80;5.43;;;;;;;;;;5134990;27;20047;-60
2023/08/13 05:00:23;;;;;;;10.57;5.40;;;;;;;;;;5135087;27;20088;-60
2023/08/13 05:02:50;;;;;;;10.68;5.47;;;;;;;;;;5134990;27;20368;-61
2023/08/13 05:05:17;;;;;;;14.38;5.75;;;;;;;;;;5134694;27;20057;-61
2023/08/13 05:07:45;;;;;;;10.35;6.03;;;;;;;;;;5134869;27;20051;-60
2023/08/13 05:10:12;;;;;;;10.07;4.30;;;;;;;;;;5134817;27;20095;-61
2023/08/13 05:12:38;;;;;;;11.88;5.18;;;;;;;;;;5134463;27;20051;-61
2023/08/13 05:15:06;;;;;;;11.30;5.20;;;;;;;;;;5134279;27;20054;-60
2023/08/13 05:17:35;;;;;;;9.88;3.72;;;;;;;;;;5134555;27;20054;-60
2023/08/13 05:20:02;;;;;;;7.07;4.38;;;;;;;;;;5134666;27;20403;-61
2023/08/13 05:22:29;;;;;;;7.15;4.22;;;;;;;;;;5134656;27;20055;-60
2023/08/13 05:24:57;;;;;;;9.80;4.80;;;;;;;;;;5134246;27;20502;-61
2023/08/13 05:27:24;;;;;;;8.18;5.60;;;;;;;;;;5134181;27;20066;-61
2023/08/13 05:29:51;;;;;;;10.55;5.38;;;;;;;;;;5134249;27;20062;-60
2023/08/13 05:32:17;;;;;;;13.10;6.40;;;;;;;;;;5134152;27;20062;-60
2023/08/13 05:34:44;;;;;;;10.57;5.47;;;;;;;;;;5134040;27;20062;-61
2023/08/13 05:37:11;;;;;;;9.65;5.43;;;;;;;;;;5134287;27;20403;-61
2023/08/13 05:39:38;;;;;;;8.13;5.22;;;;;;;;;;5134068;27;20051;-60
2023/08/13 05:42:06;;;;;;;9.88;5.88;;;;;;;;;;5134236;27;20054;-61
2023/08/13 05:44:33;;;;;;;12.70;6.00;;;;;;;;;;5134153;27;20081;-61
2023/08/13 05:47:00;;;;;;;8.43;5.20;;;;;;;;;;5134063;27;20047;-61
2023/08/13 05:49:27;;;;;;;10.20;5.20;;;;;;;;;;5133998;27;20058;-61
2023/08/13 05:51:54;;;;;;;9.63;5.38;;;;;;;;;;5133757;27;20051;-60
2023/08/13 05:54:21;;;;;;;10.10;5.20;;;;;;;;;;5134025;27;20503;-61
2023/08/13 05:56:48;;;;;;;10.77;5.35;;;;;;;;;;5133307;27;20475;-61
2023/08/13 05:59:17;;;;;;;8.90;4.68;;;;;;;;;;5134230;27;20059;-61
2023/08/13 06:01:46;;;;;;;6.15;4.18;;;;;;;;;;5134175;27;20396;-60
2023/08/13 06:04:13;;;;;;;8.48;4.53;;;;;;;;;;5134077;27;20055;-61
2023/08/13 06:06:40;;;;;;;8.98;4.53;;;;;;;;;;5133715;27;20164;-61
2023/08/13 06:09:07;;;;;;;8.05;5.10;;;;;;;;;;5133866;27;20051;-61
2023/08/13 06:11:34;;;;;;;7.50;4.30;;;;;;;;;;5133513;27;20047;-61
2023/08/13 06:14:02;;;;;;;9.52;4.53;;;;;;;;;;5133724;27;20058;-61
2023/08/13 06:16:30;;;;;;;7.97;4.45;;;;;;;;;;5133466;27;20062;-62
2023/08/13 06:18:57;;;;;;;8.48;4.32;;;;;;;;;;5133773;27;20486;-61
2023/08/13 06:21:24;;;;;;;7.32;4.20;;;;;;;;;;5133474;27;20598;-61
2023/08/13 06:23:51;;;;;;;9.13;4.25;;;;;;;;;;5133720;27;20062;-61
2023/08/13 06:26:18;;;;;;;8.82;4.95;;;;;;;;;;5133279;27;20051;-61
2023/08/13 06:28:44;;;;;;;9.38;4.65;;;;;;;;;;5133545;27;20483;-61
2023/08/13 06:31:11;;;;;;;8.30;4.43;;;;;;;;;;5133255;27;20055;-61
2023/08/13 06:33:39;;;;;;;9.25;4.50;;;;;;;;;;5133115;27;20059;-62
2023/08/13 06:36:06;;;;;;;9.05;4.60;;;;;;;;;;5132923;27;20078;-61
2023/08/13 06:38:34;;;;;;;7.13;4.40;;;;;;;;;;5133214;27;20047;-61
2023/08/13 06:41:05;;;;;;;8.85;4.70;;;;;;;;;;5133034;27;20046;-62
2023/08/13 06:43:32;;;;;;;5.60;4.20;;;;;;;;;;5133367;27;20058;-62
2023/08/13 06:45:59;;;;;;;7.63;4.03;;;;;;;;;;5133403;27;20537;-61
2023/08/13 06:48:27;;;;;;;9.07;4.22;;;;;;;;;;5133208;28;20047;-62
2023/08/13 06:50:56;;;;;;;6.95;4.07;;;;;;;;;;5133213;28;20047;-62
2023/08/13 06:53:23;;;;;;;6.68;3.67;;;;;;;;;;5133169;28;20062;-62
2023/08/13 06:55:50;;;;;;;7.57;4.03;;;;;;;;;;5132556;28;20055;-62
2023/08/13 06:58:17;;;;;;;6.05;3.83;;;;;;;;;;5133234;28;20077;-62
2023/08/13 07:00:44;;;;;;;10.75;3.72;;;;;;;;;;5132903;28;20051;-62
2023/08/13 07:03:12;;;;;;;6.50;3.55;;;;;;;;;;5133211;28;20062;-62
2023/08/13 07:05:40;;;;;;;7.47;3.92;;;;;;;;;;5132592;28;20054;-62
2023/08/13 07:08:09;;;;;;;6.75;4.25;;;;;;;;;;5133171;27;20388;-62
2023/08/13 07:10:36;;;;;;;5.72;3.13;;;;;;;;;;5136395;27;20051;-62
2023/08/13 07:13:03;;;;;;;6.88;2.85;;;;;;;;;;5137191;27;20051;-62
2023/08/13 07:15:30;;;;;;;6.85;3.42;;;;;;;;;;5136633;27;20047;-62
2023/08/13 07:17:56;;;;;;;7.53;3.22;;;;;;;;;;5136568;27;20058;-62
2023/08/13 07:20:24;;;;;;;7.38;3.15;;;;;;;;;;5136477;27;20055;-62
2023/08/13 07:22:51;;;;;;;6.05;2.85;;;;;;;;;;5136850;27;20051;-62
2023/08/13 07:25:20;;;;;;;5.15;2.60;;;;;;;;;;5136742;27;20058;-62
2023/08/13 07:27:46;;;;;;;6.28;2.53;;;;;;;;;;5136436;27;20043;-62
2023/08/13 07:30:13;;;;;;;7.03;2.72;;;;;;;;;;5136773;27;20395;-62
2023/08/13 07:32:41;;;;;;;8.27;3.17;;;;;;;;;;5136840;27;20058;-62
2023/08/13 07:35:08;;;;;;;7.18;2.70;;;;;;;;;;5136298;27;20062;-62
2023/08/13 07:37:35;;;;;;;6.45;2.65;;;;;;;;;;5136271;27;20043;-62
2023/08/13 07:40:02;;;;;;;8.65;3.15;;;;;;;;;;5136603;27;20403;-62
2023/08/13 07:42:30;;;;;;;5.13;2.22;;;;;;;;;;5136432;27;20062;-63
2023/08/13 07:44:57;;;;;;;7.75;2.63;;;;;;;;;;5136117;27;20047;-62
2023/08/13 07:47:24;;;;;;;5.30;2.63;;;;;;;;;;5136349;27;20460;-62
2023/08/13 07:49:51;;;;;;;6.18;2.30;;;;;;;;;;5136458;27;20051;-62
2023/08/13 07:52:18;;;;;;;5.22;1.95;;;;;;;;;;5136358;27;20059;-62
2023/08/13 07:54:45;;;;;;;5.20;1.90;;;;;;;;;;5136423;27;20047;-62
2023/08/13 07:57:12;;;;;;;4.25;1.90;;;;;;;;;;5136266;27;20078;-62
2023/08/13 07:59:40;;;;;;;4.82;1.85;;;;;;;;;;5136332;27;20058;-62
2023/08/13 08:02:07;;;;;;;4.68;2.00;;;;;;;;;;5135694;27;20063;-62
2023/08/13 08:04:35;;;;;;;4.22;1.83;;;;;;;;;;5135526;27;20530;-62
2023/08/13 08:07:02;;;;;;;5.75;2.10;;;;;;;;;;5135579;27;20047;-60
2023/08/13 08:09:29;;;;;;;5.30;1.88;;;;;;;;;;5135890;27;20394;-63
2023/08/13 08:11:56;;;;;;;5.32;1.77;;;;;;;;;;5135352;27;20162;-62
2023/08/13 08:14:22;;;;;;;6.35;2.20;;;;;;;;;;5135566;27;20055;-62
2023/08/13 08:16:54;;;;;;;5.97;1.80;;;;;;;;;;5135498;27;20054;-62
2023/08/13 08:19:21;;;;;;;4.07;1.63;;;;;;;;;;5135216;27;20417;-60
2023/08/13 08:21:48;;;;;;;3.75;1.48;;;;;;;;;;5134594;27;20070;-61
2023/08/13 08:24:15;;;;;;;5.28;2.05;;;;;;;;;;5135528;27;20055;-61
2023/08/13 08:26:41;;;;;;;6.00;2.30;;;;;;;;;;5135098;27;20047;-61
2023/08/13 08:29:08;;;;;;;4.05;1.73;;;;;;;;;;5135716;27;20047;-61
2023/08/13 08:31:35;;;;;;;5.32;1.95;;;;;;;;;;5135308;27;20051;-61
2023/08/13 08:34:03;;;;;;;4.72;1.85;;;;;;;;;;5135223;27;20054;-61
2023/08/13 08:36:30;;;;;;;5.93;1.98;;;;;;;;;;5135326;27;20051;-62
2023/08/13 08:38:57;;;;;;;3.80;1.65;;;;;;;;;;5135501;27;20054;-61
2023/08/13 08:41:24;;;;;;;4.38;1.55;;;;;;;;;;5135407;27;20055;-62
2023/08/13 08:43:51;;;;;;;3.78;1.67;;;;;;;;;;5135063;27;20054;-65
2023/08/13 08:46:18;;;;;;;4.22;1.38;;;;;;;;;;5135066;27;20484;-62
2023/08/13 08:48:45;;;;;;;3.13;1.33;;;;;;;;;;5135512;27;20404;-62
2023/08/13 08:51:13;;;;;;;5.07;1.80;;;;;;;;;;5135208;27;20051;-61
2023/08/13 08:53:40;;;;;;;5.43;1.60;;;;;;;;;;5135334;27;20055;-61
2023/08/13 08:56:07;;;;;;;4.28;1.40;;;;;;;;;;5134970;27;20552;-62
2023/08/13 08:58:34;;;;;;;5.22;1.50;;;;;;;;;;5135159;27;20047;-61
2023/08/13 09:01:01;;;;;;;4.53;1.60;;;;;;;;;;5134871;27;20058;-62
2023/08/13 09:03:28;;;;;;;3.38;1.42;;;;;;;;;;5135014;27;20051;-62
2023/08/13 09:05:56;;;;;;;3.90;1.20;;;;;;;;;;5135014;27;20058;-61
2023/08/13 09:08:24;;;;;;;3.83;1.60;;;;;;;;;;5134846;27;20043;-61
2023/08/13 09:10:51;;;;;;;3.78;1.48;;;;;;;;;;5134798;27;20051;-61
2023/08/13 09:13:17;;;;;;;3.85;1.33;;;;;;;;;;5134770;27;20483;-61
2023/08/13 09:15:45;;;;;;;4.72;1.30;;;;;;;;;;5134590;27;20055;-62
2023/08/13 09:18:12;;;;;;;3.17;1.25;;;;;;;;;;5134600;27;20475;-61
2023/08/13 09:20:43;;;;;;;3.28;1.20;;;;;;;;;;5134418;27;20055;-62
2023/08/13 09:23:10;;;;;;;3.20;1.20;;;;;;;;;;5134665;27;20419;-62
2023/08/13 09:25:38;;;;;;;3.97;1.50;;;;;;;;;;5134272;27;20055;-62
2023/08/13 09:28:05;;;;;;;3.40;1.38;;;;;;;;;;5134023;27;20058;-62
2023/08/13 09:30:32;;;;;;;2.72;1.30;;;;;;;;;;5134005;27;20073;-62
2023/08/13 09:32:59;;;;;;;2.88;0.95;;;;;;;;;;5134377;27;20444;-62
2023/08/13 09:35:27;;;;;;;2.67;1.20;;;;;;;;;;5133720;27;20062;-62
2023/08/13 09:37:53;;;;;;;3.78;1.70;;;;;;;;;;5134180;27;20055;-62
2023/08/13 09:40:20;;;;;;;3.22;1.20;;;;;;;;;;5134284;27;20495;-62
2023/08/13 09:42:51;;;;;;;3.72;1.75;;;;;;;;;;5134145;27;20058;-62
2023/08/13 09:45:19;;;;;;;4.63;1.33;;;;;;;;;;5134049;27;20061;-61
2023/08/13 09:47:47;;;;;;;4.35;1.20;;;;;;;;;;5134109;27;20047;-61
2023/08/13 09:50:15;;;;;;;3.40;1.30;;;;;;;;;;5133721;27;20081;-62
2023/08/13 09:52:43;;;;;;;3.40;1.40;;;;;;;;;;5133905;27;20051;-62
2023/08/13 09:55:12;;;;;;;5.97;1.50;;;;;;;;;;5134185;27;20055;-62
2023/08/13 09:57:43;;;;;;;4.72;1.70;;;;;;;;;;5133841;27;20074;-62
2023/08/13 10:00:12;;;;;;;4.35;1.73;;;;;;;;;;5133704;27;20043;-62
2023/08/13 10:02:39;;;;;;;3.33;1.60;;;;;;;;;;5133578;27;20376;-62
2023/08/13 10:05:07;;;;;;;3.35;1.38;;;;;;;;;;5133619;27;20062;-62
2023/08/13 10:07:35;;;;;;;4.15;1.50;;;;;;;;;;5133387;27;20055;-61
2023/08/13 10:10:03;;;;;;;5.95;1.63;;;;;;;;;;5133734;27;20065;-61
2023/08/13 10:12:30;;;;;;;5.38;1.60;;;;;;;;;;5133946;27;20051;-62
2023/08/13 10:14:57;;;;;;;3.05;1.17;;;;;;;;;;5133770;27;20062;-61
2023/08/13 10:17:27;;;;;;;3.63;1.40;;;;;;;;;;5133654;27;20051;-62
2023/08/13 10:19:55;;;;;;;3.72;1.30;;;;;;;;;;5133454;27;20411;-62
2023/08/13 10:22:31;;;;;;;3.17;1.33;;;;;;;;;;5133625;27;20476;-62
2023/08/13 10:24:58;;;;;;;4.68;1.42;;;;;;;;;;5133807;27;20073;-62
2023/08/13 10:27:26;;;;;;;3.90;1.48;;;;;;;;;;5133599;27;20047;-61
2023/08/13 10:30:04;;;;;;;3.17;1.23;;;;;;;;;;5133592;27;20058;-62
2023/08/13 10:32:32;;;;;;;3.88;1.58;;;;;;;;;;5133537;27;20140;-61
2023/08/13 10:34:59;;;;;;;4.22;1.52;;;;;;;;;;5133021;27;20055;-62
2023/08/13 10:37:31;;;;;;;5.15;1.48;;;;;;;;;;5133213;27;20051;-61
2023/08/13 10:40:06;;;;;;;3.35;1.55;;;;;;;;;;5133421;27;20463;-61
2023/08/13 10:42:49;;;;;;;4.68;1.45;;;;;;;;;;5132683;27;20062;-62
2023/08/13 10:45:17;;;;;;;5.03;2.15;;;;;;;;;;5132872;27;20050;-61
2023/08/13 10:47:48;;;;;;;4.28;1.50;;;;;;;;;;5132801;27;20051;-62
2023/08/13 10:50:21;;;;;;;3.72;1.40;;;;;;;;;;5133671;28;20047;-61
2023/08/13 10:52:48;;;;;;;4.30;1.92;;;;;;;;;;5133071;28;20062;-62
2023/08/13 10:55:18;;;;;;;3.15;1.52;;;;;;;;;;5132954;28;20051;-61
2023/08/13 10:57:49;;;;;;;5.22;1.88;;;;;;;;;;5133040;28;20070;-63
2023/08/13 11:00:16;;;;;;;5.15;1.40;;;;;;;;;;5132911;28;20050;-62
2023/08/13 11:02:44;;;;;;;3.47;1.55;;;;;;;;;;5133219;28;20141;-61
2023/08/13 11:05:12;;;;;;;3.78;1.38;;;;;;;;;;5133294;28;20055;-61
2023/08/13 11:07:39;;;;;;;;;;;;;;;;;;5133436;28;20140;-61
2023/08/13 11:10:09;;;;;;;3.55;1.45;;;;;;;;;;5132775;28;19939;-61
2023/08/13 11:12:38;;;;;;;3.88;1.40;;;;;;;;;;5133003;28;20062;-61
2023/08/13 11:15:05;;;;;;;4.15;1.70;;;;;;;;;;5133147;28;20055;-61
2023/08/13 11:17:32;;;;;;;4.13;1.33;;;;;;;;;;5132774;28;20055;-61
2023/08/13 11:19:59;;;;;;;5.35;1.48;;;;;;;;;;5132637;28;20073;-60
2023/08/13 11:22:27;;;;;;;3.67;1.70;;;;;;;;;;5132655;28;20062;-60
2023/08/13 11:24:54;;;;;;;3.05;1.42;;;;;;;;;;5132791;28;20055;-60
2023/08/13 11:27:27;;;;;;;4.28;1.52;;;;;;;;;;5132925;28;20063;-60
2023/08/13 11:29:54;;;;;;;4.70;1.90;;;;;;;;;;5132826;28;20388;-61
2023/08/13 11:32:23;;;;;;;4.93;1.73;;;;;;;;;;5132473;28;20047;-60
2023/08/13 11:34:52;;;;;;;5.15;1.70;;;;;;;;;;5132444;28;20062;-60
2023/08/13 11:37:19;;;;;;;3.90;1.52;;;;;;;;;;5132754;28;20503;-60
2023/08/13 11:39:48;;;;;;;3.97;1.50;;;;;;;;;;5132823;28;20488;-59
2023/08/13 11:42:14;;;;;;;4.03;1.60;;;;;;;;;;5132500;28;20055;-60
2023/08/13 11:44:41;;;;;;;4.47;1.90;;;;;;;;;;5131711;28;20403;-61
2023/08/13 11:47:09;;;;;;;3.85;1.75;;;;;;;;;;5132266;28;20051;-60
2023/08/13 11:49:42;;;;;;;3.92;1.60;;;;;;;;;;5132348;28;20051;-60
2023/08/13 11:52:10;;;;;;;3.08;1.38;;;;;;;;;;5132560;28;20047;-60
2023/08/13 11:54:37;;;;;;;5.95;1.88;;;;;;;;;;5132609;27;20491;-60
2023/08/13 11:57:06;;;;;;;3.10;1.55;;;;;;;;;;5135621;27;20051;-60
2023/08/13 11:59:37;;;;;;;3.47;1.50;;;;;;;;;;5136207;27;20051;-60
2023/08/13 12:02:03;;;;;;;4.25;1.70;;;;;;;;;;5136198;27;20434;-60
2023/08/13 12:04:32;;;;;;;7.70;2.33;;;;;;;;;;5136406;27;20411;-60
2023/08/13 12:06:59;;;;;;;4.10;1.65;;;;;;;;;;5135755;27;20047;-60
2023/08/13 12:09:28;;;;;;;4.00;1.75;;;;;;;;;;5136035;27;20047;-60
2023/08/13 12:11:56;;;;;;;5.35;1.80;;;;;;;;;;5135830;27;20058;-61
2023/08/13 12:14:26;;;;;;;3.40;1.40;;;;;;;;;;5135694;27;20054;-60
2023/08/13 12:16:52;;;;;;;3.38;1.73;;;;;;;;;;5135364;27;20047;-61
2023/08/13 12:19:19;;;;;;;4.38;1.67;;;;;;;;;;5135761;27;20054;-60
2023/08/13 12:21:46;;;;;;;3.80;1.40;;;;;;;;;;5135625;27;20051;-60
2023/08/13 12:24:13;;;;;;;3.67;1.60;;;;;;;;;;5135443;27;20062;-60
2023/08/13 12:26:40;;;;;;;3.35;1.40;;;;;;;;;;5135508;27;20058;-60
2023/08/13 12:29:06;;;;;;;4.07;1.77;;;;;;;;;;5135829;27;20051;-61
2023/08/13 12:31:34;;;;;;;4.50;1.70;;;;;;;;;;5135518;27;20055;-60
2023/08/13 12:34:01;;;;;;;5.10;1.67;;;;;;;;;;5135074;27;20504;-60
2023/08/13 12:36:28;;;;;;;4.20;1.63;;;;;;;;;;5135051;27;20054;-60
2023/08/13 12:38:55;;;;;;;4.28;1.75;;;;;;;;;;5135507;27;20055;-60
2023/08/13 12:41:22;;;;;;;4.78;2.17;;;;;;;;;;5135120;27;20488;-59
2023/08/13 12:43:48;;;;;;;3.78;1.60;;;;;;;;;;5135701;27;20058;-61
2023/08/13 12:46:15;;;;;;;4.03;1.90;;;;;;;;;;5135116;27;20492;-60
2023/08/13 12:48:47;;;;;;;4.07;1.73;;;;;;;;;;5135428;27;20508;-60
2023/08/13 12:51:15;;;;;;;4.85;1.70;;;;;;;;;;5134982;27;20133;-60
2023/08/13 12:53:42;;;;;;;4.97;1.60;;;;;;;;;;5134785;27;20058;-61
2023/08/13 12:56:09;;;;;;;3.42;1.67;;;;;;;;;;5135130;27;20073;-60
2023/08/13 12:58:36;;;;;;;4.15;1.60;;;;;;;;;;5135053;27;20059;-60
2023/08/13 13:01:02;;;;;;;4.63;2.00;;;;;;;;;;5134378;27;20058;-60
2023/08/13 13:03:30;;;;;;;3.08;1.63;;;;;;;;;;5134966;27;20051;-60
2023/08/13 13:05:58;;;;;;;3.72;1.60;;;;;;;;;;5134469;27;20496;-60
2023/08/13 13:08:25;;;;;;;3.40;1.80;;;;;;;;;;5134829;27;20055;-60
2023/08/13 13:10:52;;;;;;;2.92;1.50;;;;;;;;;;5134363;27;20047;-60
2023/08/13 13:13:19;;;;;;;3.60;1.70;;;;;;;;;;5134646;27;20047;-61
2023/08/13 13:15:46;;;;;;;4.55;1.80;;;;;;;;;;5134553;27;20055;-60
2023/08/13 13:18:12;;;;;;;3.58;1.50;;;;;;;;;;5134758;27;20062;-60
2023/08/13 13:20:39;;;;;;;3.90;1.75;;;;;;;;;;5134641;27;20047;-61
2023/08/13 13:23:07;;;;;;;5.00;1.80;;;;;;;;;;5134537;27;20400;-60
2023/08/13 13:25:34;;;;;;;3.28;1.80;;;;;;;;;;5134559;27;20051;-61
2023/08/13 13:28:01;;;;;;;4.78;1.90;;;;;;;;;;5134203;27;20472;-61
2023/08/13 13:30:32;;;;;;;3.42;1.75;;;;;;;;;;5133969;27;20056;-61
2023/08/13 13:32:59;;;;;;;4.68;1.70;;;;;;;;;;5134328;27;20412;-61
2023/08/13 13:35:26;;;;;;;4.15;1.92;;;;;;;;;;5133726;27;20058;-60
2023/08/13 13:37:52;;;;;;;3.85;1.80;;;;;;;;;;5133824;27;20411;-61
2023/08/13 13:40:21;;;;;;;4.30;1.90;;;;;;;;;;5134162;27;20051;-61
2023/08/13 13:42:49;;;;;;;5.75;2.00;;;;;;;;;;5133900;27;20140;-61
2023/08/13 13:45:16;;;;;;;4.15;1.92;;;;;;;;;;5134225;27;20051;-60
2023/08/13 13:47:43;;;;;;;5.75;2.30;;;;;;;;;;5133990;27;20058;-61
2023/08/13 13:50:10;;;;;;;3.75;1.77;;;;;;;;;;5133527;27;20055;-60
2023/08/13 13:52:37;;;;;;;4.45;1.65;;;;;;;;;;5133972;27;20065;-61
2023/08/13 13:55:04;;;;;;;4.82;1.88;;;;;;;;;;5134112;27;20115;-61
2023/08/13 13:57:32;;;;;;;3.42;1.58;;;;;;;;;;5133347;27;20392;-61
2023/08/13 13:59:59;;;;;;;5.95;1.70;;;;;;;;;;5133647;27;20058;-61
2023/08/13 14:02:26;;;;;;;5.15;1.60;;;;;;;;;;5133725;27;20460;-60
2023/08/13 14:04:52;;;;;;;5.55;2.00;;;;;;;;;;5133664;27;20078;-61
2023/08/13 14:07:19;;;;;;;3.95;1.55;;;;;;;;;;5133240;27;20054;-60
2023/08/13 14:09:46;;;;;;;3.92;1.85;;;;;;;;;;5133616;27;20047;-61
2023/08/13 14:12:13;;;;;;;4.70;2.20;;;;;;;;;;5133036;27;20047;-61
2023/08/13 14:14:41;;;;;;;4.32;1.88;;;;;;;;;;5133323;27;20054;-60
2023/08/13 14:17:08;;;;;;;5.60;2.10;;;;;;;;;;5133571;27;20051;-60
2023/08/13 14:19:35;;;;;;;3.95;2.00;;;;;;;;;;5132916;27;20051;-61
2023/08/13 14:22:02;;;;;;;3.38;1.80;;;;;;;;;;5133241;27;20047;-61
2023/08/13 14:24:29;;;;;;;4.18;1.63;;;;;;;;;;5133160;27;20058;-60
2023/08/13 14:26:55;;;;;;;4.20;1.77;;;;;;;;;;5133292;27;20062;-61
2023/08/13 14:29:22;;;;;;;5.10;1.83;;;;;;;;;;5133303;27;20051;-61
2023/08/13 14:31:50;;;;;;;3.92;1.63;;;;;;;;;;5133269;27;20473;-60
2023/08/13 14:34:17;;;;;;;4.88;1.63;;;;;;;;;;5132996;27;20055;-60
2023/08/13 14:36:44;;;;;;;4.43;2.03;;;;;;;;;;5133165;27;20047;-60
2023/08/13 14:39:11;;;;;;;4.20;1.52;;;;;;;;;;5133329;27;20384;-60
2023/08/13 14:41:38;;;;;;;4.47;2.10;;;;;;;;;;5133212;27;20043;-61